createdAt,value
2022-12-25T00:01:12.542Z,101280.00
2022-12-25T00:03:41.401Z,101276.81
2022-12-25T00:06:10.067Z,101282.53
2022-12-25T00:08:39.430Z,101271.03
2022-12-25T00:11:13.588Z,101266.13
2022-12-25T00:13:43.290Z,101273.56
2022-12-25T00:16:16.864Z,101274.34
2022-12-25T00:18:45.889Z,101276.38
2022-12-25T00:21:14.770Z,101283.13
2022-12-25T00:23:43.622Z,101284.47
2022-12-25T00:26:15.765Z,101280.72
2022-12-25T00:28:44.390Z,101273.22
2022-12-25T00:31:17.661Z,101275.34
2022-12-25T00:33:47.713Z,101265.19
2022-12-25T00:36:18.669Z,101273.75
2022-12-25T00:38:47.347Z,101269.69
2022-12-25T00:41:38.709Z,101275.56
2022-12-25T00:44:08.742Z,101275.63
2022-12-25T00:46:37.509Z,101259.09
2022-12-25T00:49:06.716Z,101266.03
2022-12-25T00:51:35.241Z,101266.34
2022-12-25T00:54:03.794Z,101269.44
2022-12-25T00:56:32.358Z,101266.59
2022-12-25T00:59:00.962Z,101267.44
2022-12-25T01:01:29.575Z,101255.31
2022-12-25T01:03:58.589Z,101252.34
2022-12-25T01:06:27.556Z,101250.34
2022-12-25T01:09:14.855Z,101249.47
2022-12-25T01:11:43.715Z,101244.63
2022-12-25T01:14:12.571Z,101244.34
2022-12-25T01:16:41.166Z,101250.59
2022-12-25T01:19:11.948Z,101250.19
2022-12-25T01:21:40.348Z,101239.56
2022-12-25T01:24:09.792Z,101244.41
2022-12-25T01:26:38.271Z,101248.25
2022-12-25T01:29:06.689Z,101249.28
2022-12-25T01:31:35.499Z,101251.75
2022-12-25T01:34:03.969Z,101261.88
2022-12-25T01:36:32.558Z,101274.00
2022-12-25T01:39:01.201Z,101270.88
2022-12-25T01:41:29.788Z,101270.50
2022-12-25T01:44:05.328Z,101262.19
2022-12-25T01:46:35.064Z,101273.03
2022-12-25T01:49:08.067Z,101276.09
2022-12-25T01:51:41.376Z,101274.69
2022-12-25T01:54:15.041Z,101291.03
2022-12-25T01:56:46.398Z,101294.25
2022-12-25T01:59:19.419Z,101298.13
2022-12-25T02:01:48.771Z,101298.84
2022-12-25T02:04:42.895Z,101300.88
2022-12-25T02:07:23.328Z,101304.78
2022-12-25T02:09:52.755Z,101298.06
2022-12-25T02:12:24.243Z,101300.00
2022-12-25T02:15:02.886Z,101308.44
2022-12-25T02:17:55.506Z,101301.97
2022-12-25T02:20:39.144Z,101302.94
2022-12-25T02:23:24.862Z,101304.00
2022-12-25T02:26:17.398Z,101305.69
2022-12-25T02:28:53.076Z,101316.13
2022-12-25T02:31:37.901Z,101303.63
2022-12-25T02:34:32.481Z,101310.44
2022-12-25T02:37:21.949Z,101296.06
2022-12-25T02:40:06.245Z,101298.69
2022-12-25T02:43:02.152Z,101304.97
2022-12-25T02:45:59.329Z,101294.53
2022-12-25T02:48:49.503Z,101288.16
2022-12-25T02:51:40.047Z,101286.25
2022-12-25T02:54:31.362Z,101280.38
2022-12-25T02:57:23.039Z,101278.63
2022-12-25T03:00:15.155Z,101272.53
2022-12-25T03:03:05.585Z,101264.59
2022-12-25T03:05:57.094Z,101258.69
2022-12-25T03:08:34.619Z,101258.31
2022-12-25T03:11:27.149Z,101251.88
2022-12-25T03:14:21.622Z,101241.22
2022-12-25T03:16:54.080Z,101225.88
2022-12-25T03:19:45.379Z,101233.44
2022-12-25T03:22:42.937Z,101227.47
2022-12-25T03:25:30.595Z,101227.50
2022-12-25T03:28:00.625Z,101214.03
2022-12-25T03:31:10.872Z,101212.16
2022-12-25T03:34:16.649Z,101204.66
2022-12-25T03:37:29.859Z,101210.06
2022-12-25T03:40:33.618Z,101217.06
2022-12-25T03:43:23.459Z,101212.25
2022-12-25T03:46:15.995Z,101214.13
2022-12-25T03:49:05.332Z,101203.41
2022-12-25T03:51:55.533Z,101219.81
2022-12-25T03:54:49.349Z,101213.09
2022-12-25T03:57:36.002Z,101201.28
2022-12-25T04:00:23.979Z,101188.56
2022-12-25T04:03:10.844Z,101187.06
2022-12-25T04:05:57.906Z,101187.06
2022-12-25T04:08:45.905Z,101178.50
2022-12-25T04:11:32.825Z,101178.88
2022-12-25T04:14:19.457Z,101188.88
2022-12-25T04:17:06.862Z,101195.88
2022-12-25T04:19:53.738Z,101193.59
2022-12-25T04:22:40.508Z,101189.78
2022-12-25T04:25:27.781Z,101186.75
2022-12-25T04:28:20.192Z,101182.44
2022-12-25T04:31:07.618Z,101192.28
2022-12-25T04:33:54.545Z,101195.00
2022-12-25T04:36:22.930Z,101191.94
2022-12-25T04:38:51.420Z,101191.97
2022-12-25T04:41:19.881Z,101196.75
2022-12-25T04:43:48.300Z,101195.00
2022-12-25T04:46:16.771Z,101200.63
2022-12-25T04:48:45.382Z,101193.31
2022-12-25T04:51:22.248Z,101188.41
2022-12-25T04:53:52.032Z,101195.69
2022-12-25T04:56:21.982Z,101195.69
2022-12-25T04:58:50.530Z,101189.19
2022-12-25T05:01:19.071Z,101183.84
2022-12-25T05:03:47.701Z,101175.03
2022-12-25T05:06:16.265Z,101170.84
2022-12-25T05:08:44.749Z,101167.66
2022-12-25T05:11:15.352Z,101168.84
2022-12-25T05:13:44.086Z,101162.44
2022-12-25T05:16:18.191Z,101157.94
2022-12-25T05:18:50.223Z,101169.50
2022-12-25T05:21:19.867Z,101173.19
2022-12-25T05:23:52.289Z,101170.78
2022-12-25T05:26:24.356Z,101159.88
2022-12-25T05:28:53.841Z,101158.38
2022-12-25T05:31:22.384Z,101144.22
2022-12-25T05:33:51.639Z,101142.63
2022-12-25T05:36:20.191Z,101122.31
2022-12-25T05:38:48.694Z,101129.94
2022-12-25T05:41:17.173Z,101126.16
2022-12-25T05:43:46.120Z,101135.81
2022-12-25T05:46:14.780Z,101141.59
2022-12-25T05:48:43.463Z,101139.22
2022-12-25T05:51:14.020Z,101129.72
2022-12-25T05:53:43.247Z,101121.16
2022-12-25T05:56:11.902Z,101130.63
2022-12-25T05:58:40.938Z,101131.66
2022-12-25T06:01:19.235Z,101129.53
2022-12-25T06:03:47.943Z,101128.59
2022-12-25T06:06:16.610Z,101113.78
2022-12-25T06:08:45.091Z,101122.25
2022-12-25T06:11:14.808Z,101110.53
2022-12-25T06:13:43.474Z,101103.06
2022-12-25T06:16:12.519Z,101107.09
2022-12-25T06:18:43.970Z,101105.13
2022-12-25T06:21:14.220Z,101100.59
2022-12-25T06:23:43.645Z,101091.66
2022-12-25T06:26:15.502Z,101095.09
2022-12-25T06:28:44.469Z,101092.38
2022-12-25T06:31:17.882Z,101099.19
2022-12-25T06:33:46.699Z,101101.19
2022-12-25T06:36:21.674Z,101099.81
2022-12-25T06:38:50.503Z,101091.81
2022-12-25T06:41:22.344Z,101075.25
2022-12-25T06:43:57.036Z,101074.88
2022-12-25T06:46:28.086Z,101060.72
2022-12-25T06:48:58.719Z,101054.31
2022-12-25T06:51:31.921Z,101045.56
2022-12-25T06:54:03.861Z,101033.81
2022-12-25T06:56:33.338Z,101023.41
2022-12-25T06:59:04.878Z,101019.69
2022-12-25T07:01:41.671Z,101018.47
2022-12-25T07:04:40.707Z,101027.41
2022-12-25T07:07:09.880Z,101022.66
2022-12-25T07:09:39.145Z,101026.75
2022-12-25T07:12:18.607Z,101028.03
2022-12-25T07:14:49.783Z,101022.19
2022-12-25T07:17:19.911Z,101034.75
2022-12-25T07:19:48.797Z,101036.16
2022-12-25T07:22:17.883Z,101034.66
2022-12-25T07:24:46.324Z,101042.88
2022-12-25T07:27:14.682Z,101046.09
2022-12-25T07:29:43.285Z,101060.25
2022-12-25T07:32:11.846Z,101059.16
2022-12-25T07:34:40.337Z,101069.47
2022-12-25T07:37:08.791Z,101062.50
2022-12-25T07:39:37.389Z,101055.97
2022-12-25T07:42:05.924Z,101044.78
2022-12-25T07:44:35.574Z,101034.97
2022-12-25T07:47:04.129Z,101029.31
2022-12-25T07:49:32.530Z,101031.19
2022-12-25T07:52:00.983Z,101032.88
2022-12-25T07:54:29.429Z,101040.59
2022-12-25T07:56:58.032Z,101042.00
2022-12-25T07:59:26.535Z,101054.41
2022-12-25T08:01:55.154Z,101062.88
2022-12-25T08:04:23.818Z,101076.38
2022-12-25T08:06:52.391Z,101092.59
2022-12-25T08:09:20.913Z,101089.56
2022-12-25T08:11:49.333Z,101099.63
2022-12-25T08:14:17.842Z,101102.66
2022-12-25T08:16:47.088Z,101112.78
2022-12-25T08:19:15.616Z,101119.22
2022-12-25T08:21:44.129Z,101116.88
2022-12-25T08:24:12.504Z,101117.91
2022-12-25T08:26:41.048Z,101103.81
2022-12-25T08:29:09.468Z,101093.00
2022-12-25T08:31:46.120Z,101084.63
2022-12-25T08:34:15.151Z,101082.97
2022-12-25T08:36:43.575Z,101109.16
2022-12-25T08:39:12.162Z,101099.09
2022-12-25T08:41:40.695Z,101104.56
2022-12-25T08:44:12.250Z,101131.88
2022-12-25T08:46:40.891Z,101134.19
2022-12-25T08:49:09.502Z,101123.38
2022-12-25T08:51:37.965Z,101126.81
2022-12-25T08:54:06.505Z,101122.41
2022-12-25T08:56:36.548Z,101101.56
2022-12-25T08:59:05.024Z,101100.56
2022-12-25T09:01:33.893Z,101097.94
2022-12-25T09:04:02.435Z,101100.84
2022-12-25T09:06:30.977Z,101085.59
2022-12-25T09:08:59.435Z,101079.41
2022-12-25T09:11:27.915Z,101064.88
2022-12-25T09:13:56.358Z,101057.66
2022-12-25T09:16:25.028Z,101083.72
2022-12-25T09:18:57.148Z,101092.59
2022-12-25T09:21:25.630Z,101102.44
2022-12-25T09:23:54.086Z,101094.59
2022-12-25T09:26:22.488Z,101098.72
2022-12-25T09:28:52.660Z,101108.50
2022-12-25T09:31:22.772Z,101085.41
2022-12-25T09:33:52.020Z,101069.59
2022-12-25T09:36:23.331Z,101072.75
2022-12-25T09:38:52.730Z,101064.28
2022-12-25T09:41:35.455Z,101057.56
2022-12-25T09:44:19.444Z,101054.84
2022-12-25T09:46:55.730Z,101063.63
2022-12-25T09:49:40.142Z,101073.69
2022-12-25T09:52:14.094Z,101063.53
2022-12-25T09:54:48.421Z,101063.03
2022-12-25T09:57:16.908Z,101039.63
2022-12-25T09:59:47.480Z,101042.16
2022-12-25T10:02:34.737Z,101040.81
2022-12-25T10:05:29.329Z,101044.25
2022-12-25T10:08:36.060Z,101043.97
2022-12-25T10:11:21.749Z,101030.16
2022-12-25T10:13:50.195Z,101026.50
2022-12-25T10:16:35.202Z,101032.25
2022-12-25T10:19:21.956Z,101021.63
2022-12-25T10:21:54.195Z,101030.09
2022-12-25T10:24:34.094Z,101023.59
2022-12-25T10:27:11.409Z,101023.50
2022-12-25T10:29:41.600Z,101014.19
2022-12-25T10:32:10.411Z,101011.28
2022-12-25T10:34:41.801Z,101011.97
2022-12-25T10:37:12.349Z,101017.97
2022-12-25T10:39:46.675Z,101019.69
2022-12-25T10:42:42.365Z,101016.31
2022-12-25T10:45:10.875Z,101011.03
2022-12-25T10:47:42.673Z,101005.25
2022-12-25T10:50:25.186Z,100995.56
2022-12-25T10:53:05.255Z,100986.34
2022-12-25T10:55:33.698Z,100977.41
2022-12-25T10:58:02.281Z,100964.91
2022-12-25T11:00:33.301Z,100949.31
2022-12-25T11:03:02.161Z,100950.59
2022-12-25T11:05:33.138Z,100944.50
2022-12-25T11:08:02.855Z,100954.22
2022-12-25T11:10:42.192Z,100971.88
2022-12-25T11:13:30.443Z,100980.59
2022-12-25T11:16:14.102Z,100971.50
2022-12-25T11:18:51.241Z,100955.91
2022-12-25T11:21:28.849Z,100958.75
2022-12-25T11:24:21.421Z,100944.88
2022-12-25T11:26:51.099Z,100936.81
2022-12-25T11:29:50.298Z,100918.41
2022-12-25T11:32:58.740Z,100925.38
2022-12-25T11:35:32.431Z,100921.59
2022-12-25T11:38:01.087Z,100922.34
2022-12-25T11:40:36.800Z,100912.28
2022-12-25T11:43:14.908Z,100913.09
2022-12-25T11:45:52.121Z,100898.84
2022-12-25T11:48:28.108Z,100908.50
2022-12-25T11:51:02.673Z,100907.06
2022-12-25T11:53:52.029Z,100906.19
2022-12-25T11:56:26.251Z,100899.97
2022-12-25T11:59:07.215Z,100896.44
2022-12-25T12:01:50.749Z,100891.88
2022-12-25T12:04:43.451Z,100887.28
2022-12-25T12:07:32.258Z,100889.91
2022-12-25T12:10:12.826Z,100890.84
2022-12-25T12:12:48.754Z,100895.97
2022-12-25T12:15:42.453Z,100893.84
2022-12-25T12:18:26.330Z,100878.41
2022-12-25T12:21:20.540Z,100877.56
2022-12-25T12:24:07.637Z,100868.75
2022-12-25T12:26:40.886Z,100855.31
2022-12-25T12:29:28.320Z,100859.09
2022-12-25T12:32:03.316Z,100861.28
2022-12-25T12:34:42.821Z,100851.88
2022-12-25T12:37:30.335Z,100832.72
2022-12-25T12:39:59.762Z,100826.41
2022-12-25T12:42:32.652Z,100830.91
2022-12-25T12:45:09.184Z,100845.84
2022-12-25T12:47:43.112Z,100856.44
2022-12-25T12:50:32.734Z,100855.28
2022-12-25T12:53:35.648Z,100845.94
2022-12-25T12:56:18.037Z,100850.09
2022-12-25T12:58:51.079Z,100856.34
2022-12-25T13:01:34.763Z,100847.19
2022-12-25T13:04:23.087Z,100840.78
2022-12-25T13:07:30.290Z,100834.56
2022-12-25T13:10:09.440Z,100817.47
2022-12-25T13:12:38.387Z,100803.94
2022-12-25T13:15:13.248Z,100801.44
2022-12-25T13:17:46.713Z,100795.13
2022-12-25T13:20:36.104Z,100784.44
2022-12-25T13:23:32.692Z,100778.94
2022-12-25T13:26:13.865Z,100779.56
2022-12-25T13:28:46.717Z,100791.00
2022-12-25T13:31:19.602Z,100791.72
2022-12-25T13:34:02.493Z,100789.78
2022-12-25T13:36:37.272Z,100784.44
2022-12-25T13:39:14.243Z,100791.47
2022-12-25T13:42:04.980Z,100776.28
2022-12-25T13:44:47.758Z,100782.56
2022-12-25T13:47:34.468Z,100776.88
2022-12-25T13:50:21.661Z,100787.81
2022-12-25T13:52:51.528Z,100777.66
2022-12-25T13:55:23.215Z,100762.88
2022-12-25T13:57:57.963Z,100769.94
2022-12-25T14:00:47.435Z,100767.69
2022-12-25T14:03:37.015Z,100764.03
2022-12-25T14:06:16.109Z,100756.13
2022-12-25T14:08:46.514Z,100760.22
2022-12-25T14:11:18.765Z,100765.63
2022-12-25T14:13:49.951Z,100765.56
2022-12-25T14:16:20.750Z,100759.66
2022-12-25T14:18:58.267Z,100750.09
2022-12-25T14:21:49.146Z,100741.81
2022-12-25T14:24:20.589Z,100744.03
2022-12-25T14:26:57.482Z,100754.81
2022-12-25T14:29:29.240Z,100746.03
2022-12-25T14:31:58.777Z,100736.06
2022-12-25T14:34:29.382Z,100727.19
2022-12-25T14:36:57.972Z,100721.56
2022-12-25T14:39:38.447Z,100722.63
2022-12-25T14:42:23.900Z,100724.38
2022-12-25T14:45:08.249Z,100730.28
2022-12-25T14:47:51.093Z,100733.75
2022-12-25T14:50:37.369Z,100730.28
2022-12-25T14:53:19.881Z,100721.03
2022-12-25T14:55:52.878Z,100724.31
2022-12-25T14:58:25.295Z,100720.84
2022-12-25T15:00:56.673Z,100729.31
2022-12-25T15:03:31.672Z,100739.34
2022-12-25T15:06:06.418Z,100734.59
2022-12-25T15:08:35.459Z,100728.78
2022-12-25T15:11:06.488Z,100733.69
2022-12-25T15:13:34.864Z,100743.13
2022-12-25T15:16:15.311Z,100750.53
2022-12-25T15:18:45.768Z,100745.50
2022-12-25T15:21:17.731Z,100741.09
2022-12-25T15:23:46.608Z,100743.44
2022-12-25T15:26:15.716Z,100747.25
2022-12-25T15:28:44.289Z,100734.94
2022-12-25T15:31:25.332Z,100743.69
2022-12-25T15:33:55.771Z,100740.06
2022-12-25T15:36:25.105Z,100740.72
2022-12-25T15:38:54.852Z,100737.94
2022-12-25T15:41:52.296Z,100731.88
2022-12-25T15:44:21.935Z,100728.84
2022-12-25T15:46:50.650Z,100733.13
2022-12-25T15:49:19.214Z,100726.28
2022-12-25T15:51:48.725Z,100722.84
2022-12-25T15:54:18.653Z,100728.78
2022-12-25T15:56:51.155Z,100725.97
2022-12-25T15:59:20.662Z,100730.34
2022-12-25T16:01:52.644Z,100723.97
2022-12-25T16:04:22.467Z,100722.84
2022-12-25T16:06:51.817Z,100724.63
2022-12-25T16:09:21.204Z,100725.28
2022-12-25T16:11:50.002Z,100720.16
2022-12-25T16:14:19.439Z,100727.44
2022-12-25T16:16:48.826Z,100716.47
2022-12-25T16:19:17.549Z,100714.78
2022-12-25T16:21:46.821Z,100713.16
2022-12-25T16:24:15.239Z,100721.22
2022-12-25T16:26:43.964Z,100721.44
2022-12-25T16:29:12.506Z,100712.41
2022-12-25T16:31:41.389Z,100711.22
2022-12-25T16:34:10.181Z,100713.19
2022-12-25T16:36:38.957Z,100709.94
2022-12-25T16:39:08.681Z,100721.00
2022-12-25T16:41:38.392Z,100705.88
2022-12-25T16:44:10.118Z,100720.13
2022-12-25T16:46:40.398Z,100712.47
2022-12-25T16:49:09.200Z,100717.75
2022-12-25T16:51:37.638Z,100718.47
2022-12-25T16:54:06.495Z,100709.06
2022-12-25T16:56:36.467Z,100711.91
2022-12-25T16:59:05.055Z,100712.03
2022-12-25T17:01:33.661Z,100707.97
2022-12-25T17:04:02.513Z,100707.44
2022-12-25T17:06:31.170Z,100709.81
2022-12-25T17:09:02.376Z,100714.09
2022-12-25T17:11:31.992Z,100718.00
2022-12-25T17:14:03.287Z,100723.44
2022-12-25T17:16:35.104Z,100714.47
2022-12-25T17:19:13.061Z,100718.50
2022-12-25T17:21:42.467Z,100723.97
2022-12-25T17:24:11.162Z,100727.97
2022-12-25T17:26:41.481Z,100722.91
2022-12-25T17:29:14.677Z,100719.22
2022-12-25T17:31:47.127Z,100707.78
2022-12-25T17:34:15.767Z,100695.84
2022-12-25T17:36:44.214Z,100695.31
2022-12-25T17:39:12.773Z,100695.56
2022-12-25T17:41:41.212Z,100694.41
2022-12-25T17:44:10.216Z,100701.88
2022-12-25T17:46:39.038Z,100695.63
2022-12-25T17:49:08.593Z,100691.63
2022-12-25T17:51:36.989Z,100697.97
2022-12-25T17:54:07.448Z,100699.13
2022-12-25T17:56:37.094Z,100710.13
2022-12-25T17:59:12.063Z,100700.38
2022-12-25T18:01:40.594Z,100688.81
2022-12-25T18:04:09.921Z,100694.44
2022-12-25T18:06:38.587Z,100689.13
2022-12-25T18:09:07.216Z,100678.59
2022-12-25T18:11:39.663Z,100683.06
2022-12-25T18:14:12.605Z,100693.75
2022-12-25T18:16:44.213Z,100692.09
2022-12-25T18:19:15.115Z,100697.72
2022-12-25T18:21:43.763Z,100710.66
2022-12-25T18:24:12.369Z,100709.50
2022-12-25T18:26:40.892Z,100704.75
2022-12-25T18:29:09.983Z,100709.59
2022-12-25T18:31:38.676Z,100713.53
2022-12-25T18:34:07.272Z,100705.06
2022-12-25T18:36:36.896Z,100716.22
2022-12-25T18:39:05.423Z,100725.13
2022-12-25T18:41:53.892Z,100715.31
2022-12-25T18:44:22.324Z,100716.25
2022-12-25T18:46:50.901Z,100719.38
2022-12-25T18:49:19.319Z,100716.69
2022-12-25T18:51:48.689Z,100724.78
2022-12-25T18:54:20.257Z,100720.78
2022-12-25T18:56:53.465Z,100727.53
2022-12-25T18:59:22.124Z,100718.81
2022-12-25T19:01:50.785Z,100722.28
2022-12-25T19:04:19.500Z,100714.19
2022-12-25T19:06:49.606Z,100713.78
2022-12-25T19:09:18.165Z,100715.16
2022-12-25T19:11:47.015Z,100713.19
2022-12-25T19:14:16.584Z,100699.66
2022-12-25T19:16:45.093Z,100703.78
2022-12-25T19:19:14.118Z,100697.41
2022-12-25T19:21:42.616Z,100685.91
2022-12-25T19:24:11.056Z,100683.78
2022-12-25T19:26:39.569Z,100694.44
2022-12-25T19:29:08.098Z,100706.28
2022-12-25T19:31:38.136Z,100705.50
2022-12-25T19:34:06.955Z,100710.50
2022-12-25T19:36:36.215Z,100721.00
2022-12-25T19:39:06.108Z,100714.03
2022-12-25T19:41:34.815Z,100716.63
2022-12-25T19:44:04.448Z,100717.16
2022-12-25T19:46:35.757Z,100710.09
2022-12-25T19:49:04.862Z,100712.34
2022-12-25T19:51:39.384Z,100715.56
2022-12-25T19:54:10.427Z,100723.41
2022-12-25T19:56:39.134Z,100730.28
2022-12-25T19:59:08.071Z,100744.06
2022-12-25T20:01:36.664Z,100734.69
2022-12-25T20:04:09.985Z,100725.59
2022-12-25T20:06:39.805Z,100717.44
2022-12-25T20:09:20.752Z,100726.34
2022-12-25T20:11:49.510Z,100721.91
2022-12-25T20:14:19.199Z,100723.47
2022-12-25T20:16:47.965Z,100724.22
2022-12-25T20:19:16.474Z,100718.75
2022-12-25T20:21:44.949Z,100728.78
2022-12-25T20:24:13.469Z,100727.25
2022-12-25T20:26:44.344Z,100731.41
2022-12-25T20:29:14.996Z,100724.31
2022-12-25T20:31:43.561Z,100723.72
2022-12-25T20:34:12.284Z,100736.72
2022-12-25T20:36:40.753Z,100731.78
2022-12-25T20:39:11.597Z,100739.97
2022-12-25T20:41:40.455Z,100737.00
2022-12-25T20:44:10.128Z,100751.56
2022-12-25T20:46:39.164Z,100751.25
2022-12-25T20:49:07.637Z,100747.50
2022-12-25T20:51:36.205Z,100751.59
2022-12-25T20:54:09.679Z,100741.75
2022-12-25T20:56:38.592Z,100743.88
2022-12-25T20:59:07.153Z,100752.56
2022-12-25T21:01:36.067Z,100745.28
2022-12-25T21:04:04.709Z,100751.75
2022-12-25T21:06:33.332Z,100752.56
2022-12-25T21:09:01.858Z,100744.00
2022-12-25T21:11:31.332Z,100745.38
2022-12-25T21:14:00.841Z,100755.78
2022-12-25T21:16:29.469Z,100769.16
2022-12-25T21:18:58.010Z,100772.16
2022-12-25T21:21:33.726Z,100774.78
2022-12-25T21:24:02.103Z,100786.44
2022-12-25T21:26:33.094Z,100781.97
2022-12-25T21:29:03.114Z,100784.56
2022-12-25T21:31:51.677Z,100779.44
2022-12-25T21:34:20.145Z,100787.88
2022-12-25T21:36:49.057Z,100794.63
2022-12-25T21:39:17.489Z,100791.94
2022-12-25T21:41:45.933Z,100797.84
2022-12-25T21:44:14.347Z,100801.66
2022-12-25T21:46:42.846Z,100800.38
2022-12-25T21:49:11.349Z,100810.06
2022-12-25T21:51:58.438Z,100801.69
2022-12-25T21:54:27.411Z,100803.41
2022-12-25T21:56:55.860Z,100811.91
2022-12-25T21:59:24.508Z,100815.41
2022-12-25T22:01:53.191Z,100807.72
2022-12-25T22:04:22.927Z,100804.22
2022-12-25T22:07:10.549Z,100820.44
2022-12-25T22:09:39.093Z,100819.25
2022-12-25T22:12:32.008Z,100815.78
2022-12-25T22:15:06.618Z,100807.75
2022-12-25T22:18:00.330Z,100815.59
2022-12-25T22:20:37.942Z,100824.13
2022-12-25T22:23:06.393Z,100827.94
2022-12-25T22:25:34.877Z,100826.97
2022-12-25T22:28:03.353Z,100823.25
2022-12-25T22:30:31.886Z,100820.91
2022-12-25T22:33:00.582Z,100828.09
2022-12-25T22:35:29.218Z,100809.50
2022-12-25T22:37:57.807Z,100803.56
2022-12-25T22:40:26.348Z,100807.25
2022-12-25T22:42:56.040Z,100811.94
2022-12-25T22:45:24.590Z,100813.91
2022-12-25T22:47:53.024Z,100813.03
2022-12-25T22:50:21.708Z,100809.00
2022-12-25T22:52:50.186Z,100821.81
2022-12-25T22:55:19.985Z,100825.03
2022-12-25T22:57:49.221Z,100824.25
2022-12-25T23:00:17.772Z,100822.28
2022-12-25T23:02:46.328Z,100834.91
2022-12-25T23:05:15.109Z,100842.53
2022-12-25T23:07:43.594Z,100833.38
2022-12-25T23:10:12.256Z,100823.13
2022-12-25T23:12:59.213Z,100820.56
2022-12-25T23:15:28.122Z,100825.53
2022-12-25T23:18:14.843Z,100834.78
2022-12-25T23:21:01.767Z,100823.56
2022-12-25T23:23:48.895Z,100815.31
2022-12-25T23:26:19.377Z,100820.72
2022-12-25T23:29:06.597Z,100821.09
2022-12-25T23:31:37.843Z,100801.78
2022-12-25T23:34:07.110Z,100809.72
2022-12-25T23:36:35.740Z,100808.25
2022-12-25T23:39:09.603Z,100800.72
2022-12-25T23:41:40.539Z,100815.06
2022-12-25T23:44:11.827Z,100830.41
2022-12-25T23:46:41.535Z,100825.88
2022-12-25T23:49:23.028Z,100835.19
2022-12-25T23:51:52.530Z,100839.59
2022-12-25T23:54:24.148Z,100834.63
2022-12-25T23:56:52.736Z,100830.63
2022-12-25T23:59:21.167Z,100827.97
